DHL Expreso B752 at San Jose on Apr 7th 2022, hydraulic failure results in runway excursion

Last Update: April 8, 2022 / 19:40:58 GMT/Zulu time

Bookmark this article
Incident Facts

Date of incident
Apr 7, 2022

Classification
Accident

Airline
DHL Air

Flight number
D0-7216

Aircraft Registration
HP-2010DAE

Aircraft Type
Boeing 757-200

ICAO Type Designator
B752

Airport ICAO Code
MROC

A DHL Aero Expreso Boeing 757-200, registration HP-2010DAE performing flight D0-7216 from San Jose (Costa Rica) to Guatemala City (Guatemala) with 2 crew, was climbing out of San Jose's runway 07 at about 09:40L (15:40Z) when the crew stopped the climb at about FL210 declaring Mayday due to a hydraulic failure. The aircraft entered a hold while the crew worked the related checklists. The aircraft subsequently returned for an approach to runway 07 about 45 minutes after departure. After touchdown at 10:24L (16:24Z) the crew lost control of the aircraft, which spun around and went off the runway causing the aircraft to break up into two parts, both main gear struts collapsed. The crew was able to exit the aircraft without serious injuries.

Relevant NOTAMs:
A0538/22 NOTAMR A0537/22
Q) MHCC/QMRLC/IV/NBO/A/000/999/1000N08413W005
A) MROC B) 2204071748 C) 2204080000
E) RWY 07/25 CLSD

A0537/22 NOTAMN
Q) MHCC/QMRLC/IV/NBO/A/000/999/1000N08413W005
A) MROC B) 2204071628 C) 2204072000
E) RWY 07/25 CLSD

Metars:
MROC 071800Z 23008KT 200V280 9999 FEW040 BKN250 28/19 A3001 NOSIG=
MROC 071700Z 24009KT 210V290 9999 FEW045 BKN250 27/19 A3003 NOSIG=
MROC 071600Z 24008KT 200V270 CAVOK 27/16 A3005 NOSIG=
MROC 071500Z VRB04KT CAVOK 27/11 A3005 NOSIG=
MROC 071400Z 03004KT 360V080 CAVOK 24/14 A3005 NOSIG=
MROC 071300Z 07004KT CAVOK 21/14 A3003 NOSIG=
MROC 071200Z 06005KT CAVOK 17/13 A3001 NOSIG=
MROC 071100Z 07008KT CAVOK 18/13 A2998 NOSIG=
Incident Facts

Date of incident
Apr 7, 2022

Classification
Accident

Airline
DHL Air

Flight number
D0-7216

Aircraft Registration
HP-2010DAE

Aircraft Type
Boeing 757-200

ICAO Type Designator
B752

Airport ICAO Code
MROC

Videos

This article is published under license from Avherald.com. © of text by Avherald.com.
Article source

You can read 2 more free articles without a subscription.

Subscribe now and continue reading without any limits!

Are you a subscriber? Login
Subscribe

Read unlimited articles and receive our daily update briefing. Gain better insights into what is happening in commercial aviation safety.

Free newsletter

Want to know more and stay ahead? Get our free weekly newsletter and join 5276 existing subscribers.

By subscribing, you accept our terms and conditions and confirm that you've read our privacy policy.

Send tip

Support AeroInside by sending a small tip amount.

Related articles

Newest articles

Subscribe today

Are you researching aviation incidents? Get access to AeroInside Insights, unlimited read access and receive the daily newsletter.

Pick your plan and subscribe

Partner

Blockaviation logo

A new way to document and demonstrate airworthiness compliance and aircraft value. Find out more.

Virtual Speech logo

ELITE Simulation Solutions is a leading global provider of Flight Simulation Training Devices, IFR training software as well as flight controls and related services. Find out more.

Get updates

Never miss an article from AeroInside. Subscribe to our free weekly newsletter and join 5276 existing subscribers.

By subscribing, you accept our terms and conditions and that you've read our privacy policy.

AeroInside Blog
Popular aircraft
Airbus A320
Boeing 737-800
Boeing 737-800 MAX
Popular airlines
American Airlines
United
Delta
Air Canada
Lufthansa
British Airways